sensor_id;sensor_type;location;lat;lon;timestamp;pressure;altitude;pressure_sealevel;temperature;humidity
10618;BME280;5356;43.526;26.534;2023-03-20T00:03:39;99483.06;;;7.06;100.00
10618;BME280;5356;43.526;26.534;2023-03-20T00:06:13;99481.34;;;6.98;100.00
10618;BME280;5356;43.526;26.534;2023-03-20T00:08:39;99477.63;;;6.92;100.00
10618;BME280;5356;43.526;26.534;2023-03-20T00:11:05;99474.72;;;6.87;100.00
10618;BME280;5356;43.526;26.534;2023-03-20T00:13:35;99472.75;;;6.74;100.00
10618;BME280;5356;43.526;26.534;2023-03-20T00:16:00;99459.00;;;6.64;100.00
10618;BME280;5356;43.526;26.534;2023-03-20T00:18:26;99456.19;;;6.66;100.00
10618;BME280;5356;43.526;26.534;2023-03-20T00:20:53;99452.03;;;6.42;100.00
10618;BME280;5356;43.526;26.534;2023-03-20T00:23:18;99450.34;;;6.19;100.00
10618;BME280;5356;43.526;26.534;2023-03-20T00:25:45;99444.97;;;6.13;100.00
10618;BME280;5356;43.526;26.534;2023-03-20T00:28:40;99444.69;;;6.07;100.00
10618;BME280;5356;43.526;26.534;2023-03-20T00:31:27;99450.06;;;6.14;100.00
10618;BME280;5356;43.526;26.534;2023-03-20T00:33:55;99451.28;;;6.12;100.00
10618;BME280;5356;43.526;26.534;2023-03-20T00:36:22;99442.69;;;6.10;100.00
10618;BME280;5356;43.526;26.534;2023-03-20T00:38:47;99441.78;;;6.02;100.00
10618;BME280;5356;43.526;26.534;2023-03-20T00:43:53;99442.34;;;5.98;100.00
10618;BME280;5356;43.526;26.534;2023-03-20T00:46:19;99443.59;;;6.02;100.00
10618;BME280;5356;43.526;26.534;2023-03-20T00:48:46;99444.91;;;6.06;100.00
10618;BME280;5356;43.526;26.534;2023-03-20T00:51:12;99437.31;;;6.18;100.00
10618;BME280;5356;43.526;26.534;2023-03-20T00:53:37;99437.22;;;6.26;100.00
10618;BME280;5356;43.526;26.534;2023-03-20T00:56:03;99445.38;;;6.31;100.00
10618;BME280;5356;43.526;26.534;2023-03-20T00:58:29;99438.47;;;6.30;100.00
10618;BME280;5356;43.526;26.534;2023-03-20T01:00:55;99442.03;;;6.37;100.00
10618;BME280;5356;43.526;26.534;2023-03-20T01:03:23;99438.72;;;6.35;100.00
10618;BME280;5356;43.526;26.534;2023-03-20T01:05:50;99424.84;;;6.33;100.00
10618;BME280;5356;43.526;26.534;2023-03-20T01:08:18;99431.22;;;6.39;100.00
10618;BME280;5356;43.526;26.534;2023-03-20T01:10:46;99428.31;;;6.34;100.00
10618;BME280;5356;43.526;26.534;2023-03-20T01:13:24;99424.97;;;6.25;100.00
10618;BME280;5356;43.526;26.534;2023-03-20T01:15:51;99428.91;;;6.29;100.00
10618;BME280;5356;43.526;26.534;2023-03-20T01:18:19;99421.34;;;6.26;100.00
10618;BME280;5356;43.526;26.534;2023-03-20T01:20:45;99435.81;;;6.30;100.00
10618;BME280;5356;43.526;26.534;2023-03-20T01:23:12;99421.78;;;6.29;100.00
10618;BME280;5356;43.526;26.534;2023-03-20T01:25:37;99411.84;;;6.32;100.00
10618;BME280;5356;43.526;26.534;2023-03-20T01:28:21;99416.66;;;6.28;100.00
10618;BME280;5356;43.526;26.534;2023-03-20T01:30:47;99415.41;;;6.24;100.00
10618;BME280;5356;43.526;26.534;2023-03-20T01:33:15;99413.78;;;6.23;100.00
10618;BME280;5356;43.526;26.534;2023-03-20T01:35:42;99417.03;;;6.25;100.00
10618;BME280;5356;43.526;26.534;2023-03-20T01:38:16;99418.16;;;6.16;100.00
10618;BME280;5356;43.526;26.534;2023-03-20T01:43:24;99415.91;;;5.98;100.00
10618;BME280;5356;43.526;26.534;2023-03-20T01:51:27;99417.59;;;5.91;100.00
10618;BME280;5356;43.526;26.534;2023-03-20T01:54:00;99414.78;;;5.77;100.00
10618;BME280;5356;43.526;26.534;2023-03-20T01:56:29;99414.22;;;5.82;100.00
10618;BME280;5356;43.526;26.534;2023-03-20T01:59:01;99417.88;;;5.81;100.00
10618;BME280;5356;43.526;26.534;2023-03-20T02:01:28;99406.38;;;5.89;100.00
10618;BME280;5356;43.526;26.534;2023-03-20T02:03:55;99406.50;;;5.80;100.00
10618;BME280;5356;43.526;26.534;2023-03-20T02:06:22;99402.56;;;5.76;100.00
10618;BME280;5356;43.526;26.534;2023-03-20T02:08:50;99401.56;;;5.77;100.00
10618;BME280;5356;43.526;26.534;2023-03-20T02:11:18;99398.66;;;5.72;100.00
10618;BME280;5356;43.526;26.534;2023-03-20T02:13:45;99404.56;;;5.74;100.00
10618;BME280;5356;43.526;26.534;2023-03-20T02:16:16;99405.75;;;5.72;100.00
10618;BME280;5356;43.526;26.534;2023-03-20T02:18:43;99401.09;;;5.74;100.00
10618;BME280;5356;43.526;26.534;2023-03-20T02:43:41;99395.75;;;5.52;100.00
10618;BME280;5356;43.526;26.534;2023-03-20T02:51:36;99392.81;;;5.47;100.00
10618;BME280;5356;43.526;26.534;2023-03-20T02:57:11;99392.09;;;5.38;100.00
10618;BME280;5356;43.526;26.534;2023-03-20T03:00:07;99379.69;;;5.39;100.00
10618;BME280;5356;43.526;26.534;2023-03-20T03:02:38;99389.16;;;5.33;100.00
10618;BME280;5356;43.526;26.534;2023-03-20T03:05:13;99385.88;;;5.31;100.00
10618;BME280;5356;43.526;26.534;2023-03-20T03:07:42;99384.69;;;5.19;100.00
10618;BME280;5356;43.526;26.534;2023-03-20T03:10:24;99393.03;;;5.08;100.00
10618;BME280;5356;43.526;26.534;2023-03-20T03:12:52;99392.59;;;5.04;100.00
10618;BME280;5356;43.526;26.534;2023-03-20T03:15:33;99384.72;;;4.96;100.00
10618;BME280;5356;43.526;26.534;2023-03-20T03:18:02;99384.81;;;5.03;100.00
10618;BME280;5356;43.526;26.534;2023-03-20T03:20:33;99377.78;;;4.95;100.00
10618;BME280;5356;43.526;26.534;2023-03-20T03:23:00;99390.78;;;4.82;100.00
10618;BME280;5356;43.526;26.534;2023-03-20T03:25:31;99387.16;;;4.83;100.00
10618;BME280;5356;43.526;26.534;2023-03-20T03:30:36;99381.88;;;4.83;100.00
10618;BME280;5356;43.526;26.534;2023-03-20T03:33:26;99387.91;;;4.91;100.00
10618;BME280;5356;43.526;26.534;2023-03-20T03:35:59;99386.44;;;4.89;100.00
10618;BME280;5356;43.526;26.534;2023-03-20T03:39:06;99393.44;;;4.82;100.00
10618;BME280;5356;43.526;26.534;2023-03-20T03:41:38;99394.72;;;4.86;100.00
10618;BME280;5356;43.526;26.534;2023-03-20T03:44:40;99378.47;;;4.74;100.00
10618;BME280;5356;43.526;26.534;2023-03-20T03:47:45;99387.50;;;4.80;100.00
10618;BME280;5356;43.526;26.534;2023-03-20T03:50:19;99390.97;;;4.80;100.00
10618;BME280;5356;43.526;26.534;2023-03-20T03:52:48;99385.50;;;4.82;100.00
10618;BME280;5356;43.526;26.534;2023-03-20T03:55:22;99385.03;;;4.78;100.00
10618;BME280;5356;43.526;26.534;2023-03-20T03:57:56;99393.50;;;4.73;100.00
10618;BME280;5356;43.526;26.534;2023-03-20T04:00:24;99382.28;;;4.71;100.00
10618;BME280;5356;43.526;26.534;2023-03-20T04:02:54;99385.63;;;4.65;100.00
10618;BME280;5356;43.526;26.534;2023-03-20T04:05:22;99383.00;;;4.65;100.00
10618;BME280;5356;43.526;26.534;2023-03-20T04:07:53;99383.00;;;4.65;100.00
10618;BME280;5356;43.526;26.534;2023-03-20T04:10:19;99384.00;;;4.64;100.00
10618;BME280;5356;43.526;26.534;2023-03-20T04:12:45;99377.72;;;4.65;100.00
10618;BME280;5356;43.526;26.534;2023-03-20T04:15:12;99379.00;;;4.69;100.00
10618;BME280;5356;43.526;26.534;2023-03-20T04:17:39;99381.69;;;4.61;100.00
10618;BME280;5356;43.526;26.534;2023-03-20T04:20:05;99384.53;;;4.60;100.00
10618;BME280;5356;43.526;26.534;2023-03-20T04:22:31;99391.06;;;4.64;100.00
10618;BME280;5356;43.526;26.534;2023-03-20T04:25:03;99387.81;;;4.62;100.00
10618;BME280;5356;43.526;26.534;2023-03-20T04:27:29;99387.16;;;4.60;100.00
10618;BME280;5356;43.526;26.534;2023-03-20T04:29:54;99393.59;;;4.57;100.00
10618;BME280;5356;43.526;26.534;2023-03-20T04:32:20;99395.72;;;4.62;100.00
10618;BME280;5356;43.526;26.534;2023-03-20T04:34:45;99399.84;;;4.64;100.00
10618;BME280;5356;43.526;26.534;2023-03-20T04:37:11;99396.84;;;4.67;100.00
10618;BME280;5356;43.526;26.534;2023-03-20T04:39:36;99395.66;;;4.70;100.00
10618;BME280;5356;43.526;26.534;2023-03-20T04:42:03;99395.19;;;4.66;100.00
10618;BME280;5356;43.526;26.534;2023-03-20T04:44:29;99401.16;;;4.60;100.00
10618;BME280;5356;43.526;26.534;2023-03-20T04:46:55;99397.88;;;4.58;100.00
10618;BME280;5356;43.526;26.534;2023-03-20T04:49:21;99406.44;;;4.60;100.00
10618;BME280;5356;43.526;26.534;2023-03-20T04:51:46;99407.16;;;4.54;100.00
10618;BME280;5356;43.526;26.534;2023-03-20T04:54:12;99400.34;;;4.60;100.00
10618;BME280;5356;43.526;26.534;2023-03-20T04:56:38;99403.09;;;4.66;100.00
10618;BME280;5356;43.526;26.534;2023-03-20T04:59:03;99413.66;;;4.66;100.00
10618;BME280;5356;43.526;26.534;2023-03-20T05:01:28;99404.47;;;4.62;100.00
10618;BME280;5356;43.526;26.534;2023-03-20T05:03:54;99408.03;;;4.69;100.00
10618;BME280;5356;43.526;26.534;2023-03-20T05:06:26;99408.25;;;4.83;100.00
10618;BME280;5356;43.526;26.534;2023-03-20T05:08:51;99417.00;;;4.83;100.00
10618;BME280;5356;43.526;26.534;2023-03-20T05:11:16;99413.97;;;5.09;100.00
10618;BME280;5356;43.526;26.534;2023-03-20T05:13:42;99412.63;;;5.13;100.00
10618;BME280;5356;43.526;26.534;2023-03-20T05:16:07;99414.63;;;5.11;100.00
10618;BME280;5356;43.526;26.534;2023-03-20T05:18:33;99418.44;;;5.09;100.00
10618;BME280;5356;43.526;26.534;2023-03-20T05:20:59;99419.38;;;5.16;100.00
10618;BME280;5356;43.526;26.534;2023-03-20T05:23:25;99419.09;;;5.11;100.00
10618;BME280;5356;43.526;26.534;2023-03-20T05:25:50;99414.53;;;5.05;100.00
10618;BME280;5356;43.526;26.534;2023-03-20T05:28:16;99407.94;;;5.01;100.00
10618;BME280;5356;43.526;26.534;2023-03-20T05:30:41;99416.00;;;5.07;100.00
10618;BME280;5356;43.526;26.534;2023-03-20T05:33:07;99414.63;;;5.11;100.00
10618;BME280;5356;43.526;26.534;2023-03-20T05:35:32;99409.19;;;5.13;100.00
10618;BME280;5356;43.526;26.534;2023-03-20T05:37:58;99417.91;;;5.13;100.00
10618;BME280;5356;43.526;26.534;2023-03-20T05:40:23;99409.91;;;5.22;100.00
10618;BME280;5356;43.526;26.534;2023-03-20T05:42:49;99420.78;;;5.27;100.00
10618;BME280;5356;43.526;26.534;2023-03-20T05:45:15;99420.66;;;5.35;100.00
10618;BME280;5356;43.526;26.534;2023-03-20T05:47:41;99424.50;;;5.32;100.00
10618;BME280;5356;43.526;26.534;2023-03-20T05:50:07;99424.41;;;5.40;100.00
10618;BME280;5356;43.526;26.534;2023-03-20T05:52:33;99414.84;;;5.39;100.00
10618;BME280;5356;43.526;26.534;2023-03-20T05:54:58;99415.06;;;5.53;100.00
10618;BME280;5356;43.526;26.534;2023-03-20T05:57:24;99423.53;;;5.63;100.00
10618;BME280;5356;43.526;26.534;2023-03-20T05:59:49;99415.34;;;5.73;100.00
10618;BME280;5356;43.526;26.534;2023-03-20T06:02:14;99417.88;;;5.81;100.00
10618;BME280;5356;43.526;26.534;2023-03-20T06:04:41;99416.13;;;5.88;100.00
10618;BME280;5356;43.526;26.534;2023-03-20T06:07:06;99413.88;;;6.00;100.00
10618;BME280;5356;43.526;26.534;2023-03-20T06:09:32;99418.16;;;6.16;100.00
10618;BME280;5356;43.526;26.534;2023-03-20T06:11:58;99417.03;;;6.25;100.00
10618;BME280;5356;43.526;26.534;2023-03-20T06:14:23;99416.53;;;6.36;100.00
10618;BME280;5356;43.526;26.534;2023-03-20T06:16:49;99412.22;;;6.50;100.00
10618;BME280;5356;43.526;26.534;2023-03-20T06:19:15;99422.53;;;6.45;100.00
10618;BME280;5356;43.526;26.534;2023-03-20T06:21:40;99414.59;;;6.60;100.00
10618;BME280;5356;43.526;26.534;2023-03-20T06:24:06;99411.91;;;6.81;100.00
10618;BME280;5356;43.526;26.534;2023-03-20T06:26:31;99417.22;;;7.03;100.00
10618;BME280;5356;43.526;26.534;2023-03-20T06:28:57;99417.56;;;7.21;100.00
10618;BME280;5356;43.526;26.534;2023-03-20T06:31:22;99412.38;;;7.34;100.00
10618;BME280;5356;43.526;26.534;2023-03-20T06:33:48;99412.41;;;7.41;100.00
10618;BME280;5356;43.526;26.534;2023-03-20T06:36:13;99412.06;;;7.51;100.00
10618;BME280;5356;43.526;26.534;2023-03-20T06:38:39;99410.41;;;7.50;100.00
10618;BME280;5356;43.526;26.534;2023-03-20T06:41:05;99416.22;;;7.60;100.00
10618;BME280;5356;43.526;26.534;2023-03-20T06:43:31;99414.69;;;7.79;100.00
10618;BME280;5356;43.526;26.534;2023-03-20T06:45:56;99412.69;;;7.87;100.00
10618;BME280;5356;43.526;26.534;2023-03-20T06:48:22;99409.28;;;8.00;100.00
10618;BME280;5356;43.526;26.534;2023-03-20T06:50:50;99411.19;;;8.13;100.00
10618;BME280;5356;43.526;26.534;2023-03-20T06:53:17;99421.06;;;8.32;100.00
10618;BME280;5356;43.526;26.534;2023-03-20T06:55:46;99407.00;;;8.39;100.00
10618;BME280;5356;43.526;26.534;2023-03-20T06:58:12;99409.09;;;8.57;100.00
10618;BME280;5356;43.526;26.534;2023-03-20T07:00:38;99410.38;;;8.81;100.00
10618;BME280;5356;43.526;26.534;2023-03-20T07:03:04;99417.94;;;8.97;100.00
10618;BME280;5356;43.526;26.534;2023-03-20T07:05:29;99407.72;;;9.14;100.00
10618;BME280;5356;43.526;26.534;2023-03-20T07:07:55;99403.59;;;9.31;100.00
10618;BME280;5356;43.526;26.534;2023-03-20T07:10:20;99407.69;;;9.47;100.00
10618;BME280;5356;43.526;26.534;2023-03-20T07:12:46;99406.44;;;9.63;100.00
10618;BME280;5356;43.526;26.534;2023-03-20T07:15:11;99403.56;;;9.71;100.00
10618;BME280;5356;43.526;26.534;2023-03-20T07:17:36;99392.06;;;9.84;100.00
10618;BME280;5356;43.526;26.534;2023-03-20T07:20:03;99401.00;;;10.03;100.00
10618;BME280;5356;43.526;26.534;2023-03-20T07:22:29;99392.31;;;10.21;100.00
10618;BME280;5356;43.526;26.534;2023-03-20T07:24:56;99393.50;;;10.38;100.00
10618;BME280;5356;43.526;26.534;2023-03-20T07:27:22;99400.75;;;10.63;100.00
10618;BME280;5356;43.526;26.534;2023-03-20T07:29:48;99384.75;;;10.63;100.00
10618;BME280;5356;43.526;26.534;2023-03-20T07:32:13;99387.38;;;10.69;100.00
10618;BME280;5356;43.526;26.534;2023-03-20T07:34:39;99396.91;;;10.84;100.00
10618;BME280;5356;43.526;26.534;2023-03-20T07:37:05;99395.50;;;11.06;100.00
10618;BME280;5356;43.526;26.534;2023-03-20T07:39:31;99392.38;;;11.34;100.00
10618;BME280;5356;43.526;26.534;2023-03-20T07:41:56;99396.34;;;11.50;100.00
10618;BME280;5356;43.526;26.534;2023-03-20T07:44:22;99385.97;;;11.60;100.00
10618;BME280;5356;43.526;26.534;2023-03-20T07:46:47;99395.09;;;11.71;100.00
10618;BME280;5356;43.526;26.534;2023-03-20T07:49:14;99388.69;;;11.97;100.00
10618;BME280;5356;43.526;26.534;2023-03-20T07:51:42;99388.75;;;12.09;100.00
10618;BME280;5356;43.526;26.534;2023-03-20T07:54:08;99394.81;;;12.34;100.00
10618;BME280;5356;43.526;26.534;2023-03-20T07:56:33;99391.94;;;12.48;100.00
10618;BME280;5356;43.526;26.534;2023-03-20T07:58:59;99388.91;;;12.74;100.00
10618;BME280;5356;43.526;26.534;2023-03-20T08:01:24;99381.25;;;13.01;100.00
10618;BME280;5356;43.526;26.534;2023-03-20T08:03:50;99380.94;;;13.21;100.00
10618;BME280;5356;43.526;26.534;2023-03-20T08:06:15;99377.25;;;13.34;100.00
10618;BME280;5356;43.526;26.534;2023-03-20T08:08:41;99371.88;;;13.58;100.00
10618;BME280;5356;43.526;26.534;2023-03-20T08:11:06;99379.78;;;13.76;100.00
10618;BME280;5356;43.526;26.534;2023-03-20T08:13:32;99369.16;;;13.81;100.00
10618;BME280;5356;43.526;26.534;2023-03-20T08:15:57;99365.31;;;13.89;100.00
10618;BME280;5356;43.526;26.534;2023-03-20T08:18:23;99363.50;;;14.06;100.00
10618;BME280;5356;43.526;26.534;2023-03-20T08:20:48;99372.19;;;14.25;100.00
10618;BME280;5356;43.526;26.534;2023-03-20T08:23:16;99366.59;;;14.27;100.00
10618;BME280;5356;43.526;26.534;2023-03-20T08:25:49;99368.94;;;14.52;100.00
10618;BME280;5356;43.526;26.534;2023-03-20T08:28:16;99372.72;;;14.68;98.91
10618;BME280;5356;43.526;26.534;2023-03-20T08:30:41;99359.09;;;14.69;97.20
10618;BME280;5356;43.526;26.534;2023-03-20T08:33:07;99365.50;;;14.85;94.42
10618;BME280;5356;43.526;26.534;2023-03-20T08:35:33;99368.38;;;14.95;92.50
10618;BME280;5356;43.526;26.534;2023-03-20T08:37:59;99372.75;;;15.18;92.90
10618;BME280;5356;43.526;26.534;2023-03-20T08:40:24;99372.22;;;15.38;91.60
10618;BME280;5356;43.526;26.534;2023-03-20T08:42:50;99373.00;;;15.56;90.95
10618;BME280;5356;43.526;26.534;2023-03-20T08:45:15;99368.78;;;15.60;89.33
10618;BME280;5356;43.526;26.534;2023-03-20T08:47:41;99368.06;;;15.47;86.39
10618;BME280;5356;43.526;26.534;2023-03-20T08:50:07;99368.31;;;15.46;84.45
10618;BME280;5356;43.526;26.534;2023-03-20T08:52:33;99363.16;;;15.61;82.80
10618;BME280;5356;43.526;26.534;2023-03-20T08:54:59;99366.66;;;15.62;79.42
10618;BME280;5356;43.526;26.534;2023-03-20T08:57:24;99366.03;;;15.71;78.84
10618;BME280;5356;43.526;26.534;2023-03-20T08:59:50;99364.66;;;15.91;77.99
10618;BME280;5356;43.526;26.534;2023-03-20T09:02:15;99364.69;;;15.96;74.67
10618;BME280;5356;43.526;26.534;2023-03-20T09:04:41;99365.03;;;16.00;73.42
10618;BME280;5356;43.526;26.534;2023-03-20T09:07:07;99361.75;;;16.20;74.68
10618;BME280;5356;43.526;26.534;2023-03-20T09:09:32;99359.44;;;16.28;72.72
10618;BME280;5356;43.526;26.534;2023-03-20T09:11:58;99365.75;;;16.17;70.87
10618;BME280;5356;43.526;26.534;2023-03-20T09:14:24;99366.13;;;16.26;71.69
10618;BME280;5356;43.526;26.534;2023-03-20T09:16:50;99357.53;;;16.29;71.50
10618;BME280;5356;43.526;26.534;2023-03-20T09:19:16;99358.63;;;16.28;71.76
10618;BME280;5356;43.526;26.534;2023-03-20T09:21:42;99356.63;;;16.18;71.24
10618;BME280;5356;43.526;26.534;2023-03-20T09:24:08;99358.28;;;16.24;71.03
10618;BME280;5356;43.526;26.534;2023-03-20T09:26:33;99358.16;;;16.36;71.70
10618;BME280;5356;43.526;26.534;2023-03-20T09:28:59;99348.38;;;16.52;71.30
10618;BME280;5356;43.526;26.534;2023-03-20T09:31:24;99353.63;;;16.69;70.97
10618;BME280;5356;43.526;26.534;2023-03-20T09:33:50;99345.75;;;16.89;70.87
10618;BME280;5356;43.526;26.534;2023-03-20T09:36:15;99348.31;;;17.06;70.17
10618;BME280;5356;43.526;26.534;2023-03-20T09:38:41;99353.50;;;17.18;68.77
10618;BME280;5356;43.526;26.534;2023-03-20T09:41:14;99347.91;;;17.24;67.25
10618;BME280;5356;43.526;26.534;2023-03-20T09:49:13;99334.28;;;17.41;64.54
10618;BME280;5356;43.526;26.534;2023-03-20T09:51:54;99332.94;;;17.44;63.86
10618;BME280;5356;43.526;26.534;2023-03-20T09:56:49;99333.22;;;17.47;63.42
10618;BME280;5356;43.526;26.534;2023-03-20T09:59:17;99330.91;;;17.71;64.64
10618;BME280;5356;43.526;26.534;2023-03-20T10:01:53;99323.13;;;17.75;63.71
10618;BME280;5356;43.526;26.534;2023-03-20T10:04:20;99318.41;;;17.98;64.12
10618;BME280;5356;43.526;26.534;2023-03-20T10:06:49;99317.03;;;18.00;61.60
10618;BME280;5356;43.526;26.534;2023-03-20T10:09:20;99315.16;;;18.01;60.72
10618;BME280;5356;43.526;26.534;2023-03-20T10:15:00;99306.56;;;18.19;61.09
10618;BME280;5356;43.526;26.534;2023-03-20T10:20:40;99303.66;;;18.41;60.35
10618;BME280;5356;43.526;26.534;2023-03-20T10:23:16;99308.50;;;18.49;57.71
10618;BME280;5356;43.526;26.534;2023-03-20T10:25:51;99303.94;;;18.55;56.28
10618;BME280;5356;43.526;26.534;2023-03-20T10:31:10;99302.59;;;18.57;54.63
10618;BME280;5356;43.526;26.534;2023-03-20T10:33:56;99301.50;;;18.74;54.13
10618;BME280;5356;43.526;26.534;2023-03-20T10:42:19;99284.22;;;19.00;51.36
10618;BME280;5356;43.526;26.534;2023-03-20T10:44:55;99285.56;;;19.03;51.60
10618;BME280;5356;43.526;26.534;2023-03-20T10:47:24;99282.63;;;18.89;50.36
10618;BME280;5356;43.526;26.534;2023-03-20T10:49:56;99289.34;;;19.02;50.43
10618;BME280;5356;43.526;26.534;2023-03-20T10:52:30;99288.25;;;19.13;50.85
10618;BME280;5356;43.526;26.534;2023-03-20T10:55:00;99271.97;;;19.39;50.99
10618;BME280;5356;43.526;26.534;2023-03-20T10:57:30;99272.50;;;19.46;50.66
10618;BME280;5356;43.526;26.534;2023-03-20T10:59:58;99267.88;;;19.57;50.46
10618;BME280;5356;43.526;26.534;2023-03-20T11:02:29;99264.09;;;19.52;49.37
10618;BME280;5356;43.526;26.534;2023-03-20T11:04:55;99270.03;;;19.49;48.76
10618;BME280;5356;43.526;26.534;2023-03-20T11:07:24;99264.09;;;19.52;48.93
10618;BME280;5356;43.526;26.534;2023-03-20T11:12:32;99252.91;;;19.80;49.36
10618;BME280;5356;43.526;26.534;2023-03-20T11:15:11;99249.31;;;19.94;49.45
10618;BME280;5356;43.526;26.534;2023-03-20T11:17:38;99248.34;;;19.75;48.07
10618;BME280;5356;43.526;26.534;2023-03-20T11:20:04;99234.78;;;19.85;48.51
10618;BME280;5356;43.526;26.534;2023-03-20T11:22:30;99234.53;;;19.82;47.32
10618;BME280;5356;43.526;26.534;2023-03-20T11:24:59;99229.91;;;19.82;47.35
10618;BME280;5356;43.526;26.534;2023-03-20T11:27:32;99228.22;;;19.96;47.29
10618;BME280;5356;43.526;26.534;2023-03-20T11:30:03;99217.22;;;19.78;46.06
10618;BME280;5356;43.526;26.534;2023-03-20T11:32:44;99218.09;;;19.63;46.19
10618;BME280;5356;43.526;26.534;2023-03-20T11:37:42;99220.13;;;19.91;45.98
10618;BME280;5356;43.526;26.534;2023-03-20T11:42:36;99210.88;;;19.98;44.59
10618;BME280;5356;43.526;26.534;2023-03-20T11:45:14;99212.22;;;20.00;44.67
10618;BME280;5356;43.526;26.534;2023-03-20T11:47:41;99208.00;;;20.23;44.67
10618;BME280;5356;43.526;26.534;2023-03-20T11:52:50;99203.28;;;20.39;43.30
10618;BME280;5356;43.526;26.534;2023-03-20T11:55:42;99207.81;;;20.44;42.22
10618;BME280;5356;43.526;26.534;2023-03-20T11:58:13;99199.09;;;20.52;42.70
10618;BME280;5356;43.526;26.534;2023-03-20T12:00:41;99194.78;;;20.51;41.87
10618;BME280;5356;43.526;26.534;2023-03-20T12:03:33;99195.56;;;20.56;41.24
10618;BME280;5356;43.526;26.534;2023-03-20T12:06:01;99192.53;;;20.63;40.81
10618;BME280;5356;43.526;26.534;2023-03-20T12:08:27;99188.28;;;20.81;41.24
10618;BME280;5356;43.526;26.534;2023-03-20T12:11:05;99177.22;;;20.77;41.76
10618;BME280;5356;43.526;26.534;2023-03-20T12:13:34;99181.78;;;20.82;41.80
10618;BME280;5356;43.526;26.534;2023-03-20T12:16:06;99182.41;;;20.74;41.63
10618;BME280;5356;43.526;26.534;2023-03-20T12:18:43;99173.13;;;20.80;42.25
10618;BME280;5356;43.526;26.534;2023-03-20T12:26:14;99169.91;;;21.02;41.91
10618;BME280;5356;43.526;26.534;2023-03-20T12:34:09;99157.69;;;20.80;41.39
10618;BME280;5356;43.526;26.534;2023-03-20T12:36:40;99159.88;;;21.02;41.42
10618;BME280;5356;43.526;26.534;2023-03-20T12:39:18;99155.63;;;20.96;41.83
10618;BME280;5356;43.526;26.534;2023-03-20T12:53:04;99145.47;;;21.07;41.17
10618;BME280;5356;43.526;26.534;2023-03-20T12:55:48;99142.72;;;20.88;40.57
10618;BME280;5356;43.526;26.534;2023-03-20T12:58:27;99138.78;;;20.99;41.22
10618;BME280;5356;43.526;26.534;2023-03-20T13:01:03;99136.03;;;21.04;40.88
10618;BME280;5356;43.526;26.534;2023-03-20T13:03:37;99134.47;;;20.98;40.39
10618;BME280;5356;43.526;26.534;2023-03-20T13:23:07;99116.94;;;21.34;39.78
10618;BME280;5356;43.526;26.534;2023-03-20T13:28:20;99115.84;;;21.35;40.04
10618;BME280;5356;43.526;26.534;2023-03-20T13:30:55;99113.72;;;21.32;39.70
10618;BME280;5356;43.526;26.534;2023-03-20T13:38:47;99104.09;;;21.63;39.85
10618;BME280;5356;43.526;26.534;2023-03-20T13:41:15;99111.84;;;21.51;39.28
10618;BME280;5356;43.526;26.534;2023-03-20T13:43:53;99099.03;;;21.38;38.64
10618;BME280;5356;43.526;26.534;2023-03-20T13:46:28;99091.53;;;21.48;39.06
10618;BME280;5356;43.526;26.534;2023-03-20T13:52:02;99097.28;;;21.47;39.05
10618;BME280;5356;43.526;26.534;2023-03-20T14:00:27;99102.31;;;21.72;38.67
10618;BME280;5356;43.526;26.534;2023-03-20T14:03:17;99095.63;;;21.65;38.92
10618;BME280;5356;43.526;26.534;2023-03-20T14:05:45;99103.16;;;21.87;39.07
10618;BME280;5356;43.526;26.534;2023-03-20T14:13:31;99093.84;;;21.93;38.47
10618;BME280;5356;43.526;26.534;2023-03-20T14:16:00;99091.47;;;21.72;37.96
10618;BME280;5356;43.526;26.534;2023-03-20T14:18:29;99088.34;;;21.46;37.61
10618;BME280;5356;43.526;26.534;2023-03-20T14:20:57;99081.53;;;21.49;37.86
10618;BME280;5356;43.526;26.534;2023-03-20T14:23:32;99079.38;;;21.65;38.33
10618;BME280;5356;43.526;26.534;2023-03-20T14:25:58;99084.34;;;21.77;38.46
10618;BME280;5356;43.526;26.534;2023-03-20T14:28:27;99083.47;;;21.62;38.09
10618;BME280;5356;43.526;26.534;2023-03-20T14:31:19;99084.66;;;21.75;38.28
10618;BME280;5356;43.526;26.534;2023-03-20T14:33:53;99078.41;;;21.74;38.30
10618;BME280;5356;43.526;26.534;2023-03-20T14:36:20;99085.59;;;21.65;37.76
10618;BME280;5356;43.526;26.534;2023-03-20T14:41:27;99074.00;;;21.46;37.37
10618;BME280;5356;43.526;26.534;2023-03-20T14:44:21;99075.38;;;21.43;37.34
10618;BME280;5356;43.526;26.534;2023-03-20T14:46:53;99073.22;;;21.59;37.68
10618;BME280;5356;43.526;26.534;2023-03-20T14:52:22;99074.34;;;21.58;37.62
10618;BME280;5356;43.526;26.534;2023-03-20T14:54:53;99074.38;;;21.72;37.70
10618;BME280;5356;43.526;26.534;2023-03-20T14:57:31;99070.09;;;21.52;37.41
10618;BME280;5356;43.526;26.534;2023-03-20T14:59:57;99068.84;;;21.44;37.69
10618;BME280;5356;43.526;26.534;2023-03-20T15:02:26;99066.25;;;21.34;37.42
10618;BME280;5356;43.526;26.534;2023-03-20T15:04:53;99056.59;;;21.09;37.76
10618;BME280;5356;43.526;26.534;2023-03-20T15:09:48;99065.44;;;20.96;37.96
10618;BME280;5356;43.526;26.534;2023-03-20T15:12:18;99060.03;;;20.96;37.90
10618;BME280;5356;43.526;26.534;2023-03-20T15:14:54;99057.59;;;20.94;38.08
10618;BME280;5356;43.526;26.534;2023-03-20T15:17:44;99056.28;;;20.92;38.21
10618;BME280;5356;43.526;26.534;2023-03-20T15:20:20;99054.16;;;20.89;38.34
10618;BME280;5356;43.526;26.534;2023-03-20T15:22:48;99058.47;;;20.90;38.23
10618;BME280;5356;43.526;26.534;2023-03-20T15:25:19;99067.09;;;20.92;38.25
10618;BME280;5356;43.526;26.534;2023-03-20T15:27:45;99060.59;;;20.93;38.30
10618;BME280;5356;43.526;26.534;2023-03-20T15:30:16;99046.16;;;20.78;38.34
10618;BME280;5356;43.526;26.534;2023-03-20T15:32:43;99046.00;;;20.70;38.37
10618;BME280;5356;43.526;26.534;2023-03-20T15:35:20;99051.47;;;20.65;38.25
10618;BME280;5356;43.526;26.534;2023-03-20T15:37:48;99057.69;;;20.65;38.41
10618;BME280;5356;43.526;26.534;2023-03-20T15:40:28;99059.28;;;20.66;38.40